Time;durP1;ratioP1;P1;durP2;ratioP2;P2;SDS_P1;SDS_P2;PMS_P1;PMS_P2;Temp;Humidity;BMP_temperature;BMP_pressure;BME280_temperature;BME280_humidity;BME280_pressure;Samples;Min_cycle;Max_cycle;Signal;HPM_P1;HPM_P2
2023/06/01 00:01:44;;;;;;;7.25;3.28;;;15.20;99.90;;;;;;5104355;28;20023;-57
2023/06/01 00:04:10;;;;;;;8.15;3.15;;;15.20;99.90;;;;;;5107484;28;20450;-57
2023/06/01 00:06:35;;;;;;;5.68;3.15;;;15.20;99.90;;;;;;5106788;28;20505;-54
2023/06/01 00:09:02;;;;;;;9.00;3.30;;;15.20;99.90;;;;;;5108827;28;20032;-58
2023/06/01 00:11:28;;;;;;;6.90;3.65;;;15.10;99.90;;;;;;5110056;28;20055;-58
2023/06/01 00:13:54;;;;;;;7.43;3.75;;;15.20;99.90;;;;;;5101558;28;20071;-58
2023/06/01 00:16:19;;;;;;;9.63;3.45;;;15.30;99.90;;;;;;5106908;28;20034;-58
2023/06/01 00:18:45;;;;;;;11.32;3.33;;;15.30;99.90;;;;;;5108058;28;20031;-59
2023/06/01 00:21:11;;;;;;;10.18;3.03;;;15.30;99.90;;;;;;5103061;28;20459;-59
2023/06/01 00:23:40;;;;;;;11.68;4.70;;;15.40;99.90;;;;;;5112389;28;20046;-59
2023/06/01 00:26:06;;;;;;;6.00;3.15;;;15.50;99.90;;;;;;5110613;28;20485;-57
2023/06/01 00:28:32;;;;;;;7.45;3.33;;;15.60;99.90;;;;;;5109771;28;20065;-59
2023/06/01 00:30:58;;;;;;;9.95;3.90;;;15.60;99.90;;;;;;5111186;28;20120;-59
2023/06/01 00:33:23;;;;;;;10.57;3.20;;;15.60;99.90;;;;;;5108024;28;20043;-57
2023/06/01 00:35:49;;;;;;;12.20;4.30;;;15.60;99.90;;;;;;5111406;28;20031;-57
2023/06/01 00:38:15;;;;;;;9.95;3.28;;;15.50;99.90;;;;;;5112733;28;20063;-56
2023/06/01 00:40:40;;;;;;;12.07;3.72;;;15.40;99.90;;;;;;5110859;28;20096;-52
2023/06/01 00:43:06;;;;;;;11.05;3.55;;;15.40;99.90;;;;;;5108964;28;20031;-53
2023/06/01 00:45:31;;;;;;;9.80;3.13;;;15.20;99.90;;;;;;5110697;28;20115;-56
2023/06/01 00:47:59;;;;;;;13.25;3.92;;;15.30;99.90;;;;;;5113232;28;20023;-58
2023/06/01 00:50:24;;;;;;;8.23;3.45;;;15.20;99.90;;;;;;5108608;28;20023;-52
2023/06/01 00:52:51;;;;;;;9.63;3.75;;;15.00;99.90;;;;;;5109896;28;20125;-55
2023/06/01 00:55:19;;;;;;;8.18;3.90;;;14.90;99.90;;;;;;5110487;28;20035;-58
2023/06/01 00:57:45;;;;;;;14.63;4.10;;;14.90;99.90;;;;;;5109046;28;20393;-57
2023/06/01 01:00:11;;;;;;;15.38;3.35;;;14.80;99.90;;;;;;5109154;28;20065;-57
2023/06/01 01:02:39;;;;;;;9.98;3.38;;;14.90;99.90;;;;;;5111086;28;20385;-58
2023/06/01 01:05:09;;;;;;;9.35;3.70;;;14.90;99.90;;;;;;5112328;28;20072;-60
2023/06/01 01:07:43;;;;;;;9.02;3.50;;;15.00;99.90;;;;;;5107644;28;20103;-59
2023/06/01 01:10:30;;;;;;;8.07;3.28;;;15.10;99.90;;;;;;5105360;28;20037;-60
2023/06/01 01:13:23;;;;;;;7.75;3.25;;;15.10;99.90;;;;;;5107008;28;20096;-58
2023/06/01 01:16:27;;;;;;;7.55;3.03;;;15.10;99.90;;;;;;5108662;28;20023;-54
2023/06/01 01:19:12;;;;;;;14.75;3.28;;;15.00;99.90;;;;;;5077719;28;20039;-57
2023/06/01 01:21:42;;;;;;;5.30;2.97;;;14.90;99.90;;;;;;5108635;28;20111;-57
2023/06/01 01:24:31;;;;;;;10.18;3.00;;;14.90;99.90;;;;;;5105507;28;20027;-55
2023/06/01 01:27:24;;;;;;;6.57;3.25;;;14.90;99.90;;;;;;5107881;28;20106;-60
2023/06/01 01:29:53;;;;;;;7.78;3.40;;;14.80;99.90;;;;;;5109764;28;20015;-55
2023/06/01 01:32:21;;;;;;;5.20;2.85;;;14.80;99.90;;;;;;5110175;28;20022;-58
2023/06/01 01:34:48;;;;;;;8.43;3.60;;;14.90;99.90;;;;;;5110617;28;20028;-59
2023/06/01 01:37:13;;;;;;;9.68;3.60;;;14.90;99.90;;;;;;5105289;28;20063;-58
2023/06/01 01:39:39;;;;;;;8.95;3.17;;;15.00;99.90;;;;;;5109599;28;20031;-55
2023/06/01 01:42:05;;;;;;;9.02;3.00;;;15.00;99.90;;;;;;5109814;28;20101;-54
2023/06/01 01:44:31;;;;;;;8.48;3.42;;;15.00;99.90;;;;;;5106102;28;20059;-58
2023/06/01 01:47:12;;;;;;;10.52;3.47;;;15.00;99.90;;;;;;5107094;28;20026;-59
2023/06/01 01:49:46;;;;;;;9.15;3.20;;;15.10;99.90;;;;;;5108108;28;20023;-58
2023/06/01 01:52:34;;;;;;;8.05;3.08;;;15.00;99.90;;;;;;5106322;28;20400;-56
2023/06/01 01:55:01;;;;;;;8.07;3.60;;;15.00;99.90;;;;;;5107193;28;20024;-58
2023/06/01 01:57:29;;;;;;;15.07;4.03;;;15.00;99.90;;;;;;5109234;28;20038;-57
2023/06/01 01:59:56;;;;;;;7.57;3.72;;;15.00;99.90;;;;;;5109219;28;20052;-57
2023/06/01 02:02:22;;;;;;;10.95;3.30;;;15.00;99.90;;;;;;5107117;28;20090;-58
2023/06/01 02:04:47;;;;;;;9.88;2.90;;;14.90;99.90;;;;;;5109550;28;20411;-58
2023/06/01 02:07:13;;;;;;;7.93;3.22;;;14.90;99.90;;;;;;5105057;28;20027;-59
2023/06/01 02:09:40;;;;;;;11.20;3.67;;;14.90;99.90;;;;;;5106416;28;20520;-59
2023/06/01 02:12:06;;;;;;;5.90;3.30;;;14.90;99.90;;;;;;5109192;28;20026;-60
2023/06/01 02:14:32;;;;;;;6.22;3.90;;;14.90;99.90;;;;;;5107874;28;20086;-60
2023/06/01 02:16:57;;;;;;;9.52;3.45;;;14.90;99.90;;;;;;5109166;28;20498;-58
2023/06/01 02:19:23;;;;;;;11.13;3.92;;;14.80;99.90;;;;;;5110339;28;20020;-57
2023/06/01 02:21:48;;;;;;;4.72;3.72;;;14.80;99.90;;;;;;5108361;28;20019;-58
2023/06/01 02:24:14;;;;;;;7.93;3.95;;;14.80;99.90;;;;;;5109882;28;20020;-58
2023/06/01 02:26:40;;;;;;;9.65;4.07;;;14.70;99.90;;;;;;5106941;28;20498;-58
2023/06/01 02:29:05;;;;;;;14.40;3.85;;;14.80;99.90;;;;;;5109156;28;20072;-60
2023/06/01 02:31:32;;;;;;;7.57;3.45;;;14.70;99.90;;;;;;5104807;28;20546;-59
2023/06/01 02:33:59;;;;;;;7.95;3.33;;;14.70;99.90;;;;;;5105404;28;20509;-60
2023/06/01 02:36:26;;;;;;;8.52;3.35;;;14.70;99.90;;;;;;5107701;28;20028;-57
2023/06/01 02:38:51;;;;;;;12.35;4.00;;;14.70;99.90;;;;;;5104611;28;20034;-60
2023/06/01 02:41:17;;;;;;;7.45;3.28;;;14.70;99.90;;;;;;5107622;28;20502;-58
2023/06/01 02:43:42;;;;;;;11.25;3.92;;;14.70;99.90;;;;;;5105904;28;20016;-58
2023/06/01 02:46:08;;;;;;;8.55;3.70;;;14.60;99.90;;;;;;5108564;28;20053;-58
2023/06/01 02:48:33;;;;;;;5.25;3.13;;;14.60;99.90;;;;;;5110001;28;20130;-60
2023/06/01 02:51:00;;;;;;;8.25;3.10;;;14.40;99.90;;;;;;5111648;28;20016;-60
2023/06/01 02:53:28;;;;;;;8.38;3.53;;;14.30;99.90;;;;;;5105935;28;20020;-59
2023/06/01 02:55:53;;;;;;;5.75;3.30;;;14.20;99.90;;;;;;5109779;28;20611;-55
2023/06/01 02:58:20;;;;;;;9.90;3.70;;;14.20;99.90;;;;;;5107301;28;20023;-58
2023/06/01 03:00:46;;;;;;;7.80;3.22;;;14.20;99.90;;;;;;5108308;28;20016;-57
2023/06/01 03:03:12;;;;;;;6.70;4.78;;;14.10;99.90;;;;;;5109310;28;20016;-58
2023/06/01 03:05:38;;;;;;;8.77;3.17;;;14.10;99.90;;;;;;5107343;28;20027;-58
2023/06/01 03:08:06;;;;;;;10.82;3.75;;;14.20;99.90;;;;;;5107070;28;20131;-57
2023/06/01 03:10:31;;;;;;;13.18;3.15;;;14.10;99.90;;;;;;5109240;28;20485;-58
2023/06/01 03:12:57;;;;;;;6.35;3.67;;;14.20;99.90;;;;;;5107610;28;20044;-58
2023/06/01 03:15:23;;;;;;;7.55;3.90;;;14.10;99.90;;;;;;5107124;28;20493;-57
2023/06/01 03:17:48;;;;;;;14.15;3.38;;;14.20;99.90;;;;;;5110714;28;20478;-56
2023/06/01 03:20:17;;;;;;;7.70;2.88;;;14.20;99.90;;;;;;5109622;28;20497;-57
2023/06/01 03:22:46;;;;;;;8.23;3.60;;;14.10;99.90;;;;;;5104852;28;20397;-58
2023/06/01 03:25:16;;;;;;;8.73;3.88;;;14.10;99.90;;;;;;5110017;28;20023;-56
2023/06/01 03:27:42;;;;;;;13.65;4.13;;;14.00;99.90;;;;;;5109693;28;20524;-58
2023/06/01 03:30:10;;;;;;;16.10;3.97;;;14.00;99.90;;;;;;5106940;28;20039;-56
2023/06/01 03:32:40;;;;;;;6.90;3.70;;;14.00;99.90;;;;;;5107674;28;20066;-58
2023/06/01 03:35:07;;;;;;;8.75;4.18;;;14.00;99.90;;;;;;5108909;28;20032;-54
2023/06/01 03:37:38;;;;;;;8.38;4.07;;;13.90;99.90;;;;;;5103852;28;20040;-60
2023/06/01 03:40:10;;;;;;;12.02;3.40;;;13.90;99.90;;;;;;5106770;28;20027;-58
2023/06/01 03:42:41;;;;;;;15.98;4.72;;;13.90;99.90;;;;;;5105392;28;20028;-56
2023/06/01 03:45:08;;;;;;;10.32;3.80;;;13.90;99.90;;;;;;5105280;28;20102;-56
2023/06/01 03:47:33;;;;;;;12.50;4.53;;;13.90;99.90;;;;;;5109279;28;20034;-56
2023/06/01 03:50:01;;;;;;;10.25;4.35;;;13.90;99.90;;;;;;5108450;28;20040;-59
2023/06/01 03:52:27;;;;;;;12.65;4.50;;;13.90;99.90;;;;;;5105423;28;20038;-55
2023/06/01 03:54:54;;;;;;;16.55;5.55;;;13.90;99.90;;;;;;5105293;28;20500;-58
2023/06/01 03:57:20;;;;;;;14.50;5.60;;;13.80;99.90;;;;;;5107785;28;20051;-58
2023/06/01 03:59:46;;;;;;;15.55;5.43;;;13.80;99.90;;;;;;5110982;28;20621;-58
2023/06/01 04:02:11;;;;;;;13.68;6.03;;;13.80;99.90;;;;;;5110587;28;20019;-57
2023/06/01 04:04:37;;;;;;;12.55;6.20;;;13.80;99.90;;;;;;5111161;28;20031;-59
2023/06/01 04:07:03;;;;;;;19.23;6.03;;;13.80;99.90;;;;;;5110465;28;20113;-59
2023/06/01 04:09:32;;;;;;;16.10;5.68;;;13.80;99.90;;;;;;5109894;28;20440;-59
2023/06/01 04:11:58;;;;;;;17.63;8.10;;;13.80;99.90;;;;;;5108501;28;20447;-52
2023/06/01 04:14:23;;;;;;;16.63;6.70;;;13.80;99.90;;;;;;5111022;28;20020;-53
2023/06/01 04:16:49;;;;;;;19.80;7.65;;;13.80;99.90;;;;;;5110550;28;20512;-54
2023/06/01 04:19:15;;;;;;;15.52;6.45;;;13.80;99.90;;;;;;5111617;28;20507;-56
2023/06/01 04:21:41;;;;;;;17.83;7.22;;;13.80;99.90;;;;;;5106699;28;20484;-56
2023/06/01 04:24:06;;;;;;;19.63;7.72;;;13.80;99.90;;;;;;5111452;28;20111;-58
2023/06/01 04:26:32;;;;;;;17.75;8.00;;;13.80;99.90;;;;;;5108747;28;20099;-57
2023/06/01 04:28:58;;;;;;;20.13;7.75;;;13.80;99.90;;;;;;5112220;28;20047;-56
2023/06/01 04:31:24;;;;;;;22.15;9.18;;;13.80;99.90;;;;;;5110628;28;20450;-57
2023/06/01 04:33:53;;;;;;;13.45;7.00;;;13.80;99.90;;;;;;5110634;28;20106;-54
2023/06/01 04:36:22;;;;;;;23.77;9.15;;;13.80;99.90;;;;;;5109945;28;20035;-56
2023/06/01 04:38:52;;;;;;;19.67;9.82;;;13.80;99.90;;;;;;5112338;28;20023;-56
2023/06/01 04:41:20;;;;;;;20.35;7.68;;;13.80;99.90;;;;;;5108459;28;20038;-56
2023/06/01 04:43:51;;;;;;;23.45;9.20;;;13.80;99.90;;;;;;5110153;28;20016;-54
2023/06/01 04:46:23;;;;;;;19.42;9.25;;;13.90;99.90;;;;;;5107437;28;20035;-57
2023/06/01 04:48:51;;;;;;;21.17;8.88;;;13.80;99.90;;;;;;5111215;28;20028;-56
2023/06/01 04:51:19;;;;;;;24.30;9.27;;;13.80;99.90;;;;;;5109438;28;20033;-55
2023/06/01 04:53:49;;;;;;;24.95;10.05;;;13.80;99.90;;;;;;5108073;28;20020;-51
2023/06/01 04:56:17;;;;;;;29.75;10.57;;;13.90;99.90;;;;;;5104989;28;20024;-57
2023/06/01 04:58:44;;;;;;;27.50;9.65;;;13.80;99.90;;;;;;5108727;28;20050;-54
2023/06/01 05:01:13;;;;;;;18.33;9.00;;;13.80;99.90;;;;;;5109116;28;20110;-54
2023/06/01 05:03:38;;;;;;;26.95;10.73;;;13.90;99.90;;;;;;5108640;28;20054;-57
2023/06/01 05:06:04;;;;;;;30.77;11.60;;;13.90;99.90;;;;;;5108291;28;20055;-57
2023/06/01 05:08:31;;;;;;;26.92;10.27;;;13.90;99.90;;;;;;5107756;28;20107;-54
2023/06/01 05:10:57;;;;;;;30.90;11.45;;;13.90;99.90;;;;;;5108183;28;20039;-56
2023/06/01 05:13:22;;;;;;;27.48;10.75;;;13.90;99.90;;;;;;5107353;28;20062;-58
2023/06/01 05:15:48;;;;;;;27.77;11.07;;;13.90;99.90;;;;;;5102989;28;20111;-57
2023/06/01 05:18:13;;;;;;;37.35;11.88;;;13.90;99.90;;;;;;5100129;28;20050;-57
2023/06/01 05:20:39;;;;;;;30.40;11.45;;;14.00;99.90;;;;;;5100012;28;20054;-60
2023/06/01 05:23:04;;;;;;;30.88;11.57;;;14.00;99.90;;;;;;5104311;28;20532;-56
2023/06/01 05:25:30;;;;;;;25.65;12.43;;;14.10;99.90;;;;;;5103636;28;20024;-59
2023/06/01 05:27:55;;;;;;;33.33;12.27;;;14.10;99.90;;;;;;5107692;28;20465;-58
2023/06/01 05:30:21;;;;;;;31.48;13.30;;;14.10;99.90;;;;;;5106532;28;20039;-54
2023/06/01 05:32:47;;;;;;;29.85;12.80;;;14.10;99.90;;;;;;5110040;28;20081;-58
2023/06/01 05:35:12;;;;;;;30.00;12.07;;;14.20;99.90;;;;;;5094935;28;20104;-58
2023/06/01 05:37:38;;;;;;;34.70;15.68;;;14.20;99.90;;;;;;5094128;28;20762;-57
2023/06/01 05:40:06;;;;;;;32.60;14.30;;;14.20;99.90;;;;;;5092546;28;20066;-57
2023/06/01 05:42:32;;;;;;;34.05;13.75;;;14.20;99.90;;;;;;5096124;28;21013;-57
2023/06/01 05:44:58;;;;;;;35.88;14.52;;;14.20;99.90;;;;;;5107275;28;20042;-52
2023/06/01 05:47:23;;;;;;;36.45;15.32;;;14.20;99.90;;;;;;5107756;28;20063;-54
2023/06/01 05:49:49;;;;;;;33.65;15.65;;;14.20;99.90;;;;;;5104083;28;20051;-58
2023/06/01 05:52:14;;;;;;;40.90;16.77;;;14.20;99.90;;;;;;5109923;28;20024;-53
2023/06/01 05:54:40;;;;;;;46.30;19.05;;;14.20;99.90;;;;;;5107833;28;20024;-56
2023/06/01 05:57:06;;;;;;;49.83;18.10;;;14.20;99.90;;;;;;5110227;28;20080;-57
2023/06/01 05:59:32;;;;;;;41.13;19.08;;;14.20;99.90;;;;;;5108705;28;20092;-57
2023/06/01 06:01:57;;;;;;;55.80;21.40;;;14.20;99.90;;;;;;5107948;28;20024;-58
2023/06/01 06:04:23;;;;;;;44.08;18.33;;;14.20;99.90;;;;;;5110049;28;20028;-57
2023/06/01 06:06:48;;;;;;;47.47;18.30;;;14.20;99.90;;;;;;5108447;28;20095;-57
2023/06/01 06:09:15;;;;;;;41.30;17.40;;;14.20;99.90;;;;;;5109541;28;20032;-59
2023/06/01 06:11:41;;;;;;;46.90;19.25;;;14.30;99.90;;;;;;5109263;28;20028;-57
2023/06/01 06:14:07;;;;;;;47.58;18.90;;;14.40;99.90;;;;;;5109443;28;20070;-58
2023/06/01 06:16:32;;;;;;;43.03;18.10;;;14.50;99.90;;;;;;5108803;28;20038;-58
2023/06/01 06:18:58;;;;;;;40.17;17.85;;;14.40;99.90;;;;;;5108747;28;20054;-57
2023/06/01 06:21:23;;;;;;;43.20;18.92;;;14.40;99.90;;;;;;5109676;28;20520;-59
2023/06/01 06:23:49;;;;;;;50.08;19.60;;;14.40;99.90;;;;;;5109651;28;20039;-54
2023/06/01 06:26:14;;;;;;;52.90;22.88;;;14.40;99.90;;;;;;5106685;28;20032;-58
2023/06/01 06:28:40;;;;;;;54.13;24.13;;;14.50;99.90;;;;;;5104133;28;20030;-57
2023/06/01 06:31:06;;;;;;;71.45;23.38;;;14.50;99.90;;;;;;5106546;28;20027;-57
2023/06/01 06:33:31;;;;;;;62.80;23.50;;;14.50;99.90;;;;;;5097855;28;20060;-58
2023/06/01 06:35:57;;;;;;;50.50;24.52;;;14.50;99.90;;;;;;5105487;28;20074;-55
2023/06/01 06:38:22;;;;;;;56.67;24.52;;;14.50;99.90;;;;;;5096629;28;20053;-59
2023/06/01 06:40:48;;;;;;;54.00;24.25;;;14.60;99.90;;;;;;5106714;28;20059;-57
2023/06/01 06:43:15;;;;;;;56.30;24.92;;;14.60;99.90;;;;;;5103497;28;20027;-56
2023/06/01 06:45:41;;;;;;;56.60;23.33;;;14.70;99.90;;;;;;5107655;28;20442;-58
2023/06/01 06:48:06;;;;;;;52.13;22.92;;;14.70;99.90;;;;;;5100847;28;20501;-56
2023/06/01 06:50:32;;;;;;;46.72;22.90;;;14.80;99.90;;;;;;5108463;28;20027;-58
2023/06/01 06:52:59;;;;;;;52.13;21.92;;;14.70;99.90;;;;;;5102396;28;20024;-56
2023/06/01 06:55:24;;;;;;;46.22;22.92;;;14.70;99.90;;;;;;5105057;28;20525;-56
2023/06/01 06:57:50;;;;;;;48.13;22.60;;;14.80;99.90;;;;;;5104923;28;20020;-55
2023/06/01 07:00:16;;;;;;;51.88;24.02;;;14.70;99.90;;;;;;5105996;28;20055;-57
2023/06/01 07:02:44;;;;;;;56.83;24.02;;;14.70;99.90;;;;;;5101574;28;20469;-53
2023/06/01 07:05:10;;;;;;;41.08;22.35;;;14.70;99.90;;;;;;5102260;28;20020;-58
2023/06/01 07:07:37;;;;;;;45.40;22.48;;;14.70;99.90;;;;;;5096972;28;20035;-54
2023/06/01 07:10:03;;;;;;;47.15;23.23;;;14.70;99.90;;;;;;5101802;28;20012;-53
2023/06/01 07:12:29;;;;;;;53.28;24.80;;;14.60;99.90;;;;;;5102583;28;20050;-58
2023/06/01 07:14:54;;;;;;;58.50;24.65;;;14.60;99.90;;;;;;5109188;28;20552;-59
2023/06/01 07:17:20;;;;;;;57.88;24.58;;;14.50;99.90;;;;;;5105277;28;20068;-58
2023/06/01 07:19:45;;;;;;;46.40;22.95;;;14.30;99.90;;;;;;5109805;28;20084;-58
2023/06/01 07:22:11;;;;;;;57.33;24.75;;;14.20;99.90;;;;;;5108241;28;20016;-56
2023/06/01 07:24:36;;;;;;;51.55;23.80;;;14.30;99.90;;;;;;5099676;28;20977;-56
2023/06/01 07:27:02;;;;;;;50.65;23.20;;;14.30;99.90;;;;;;5102596;28;20359;-58
2023/06/01 07:29:27;;;;;;;54.80;26.33;;;14.20;99.90;;;;;;5108191;28;20036;-60
2023/06/01 07:31:53;;;;;;;55.35;23.23;;;14.10;99.90;;;;;;5099780;28;20055;-58
2023/06/01 07:34:19;;;;;;;47.88;22.45;;;14.20;99.90;;;;;;5113342;28;20042;-60
2023/06/01 07:36:46;;;;;;;48.88;23.58;;;14.30;99.90;;;;;;5112825;28;20397;-58
2023/06/01 07:39:12;;;;;;;46.42;21.20;;;14.30;99.90;;;;;;5105717;28;20035;-58
2023/06/01 07:41:39;;;;;;;41.92;21.08;;;14.40;99.90;;;;;;5106472;28;20027;-56
2023/06/01 07:44:05;;;;;;;40.42;20.13;;;14.50;99.90;;;;;;5106424;28;20024;-58
2023/06/01 07:46:31;;;;;;;51.35;24.90;;;14.60;99.90;;;;;;5105276;28;20024;-60
2023/06/01 07:48:57;;;;;;;53.38;23.38;;;14.60;99.90;;;;;;5106104;28;20020;-57
2023/06/01 07:51:22;;;;;;;53.72;23.90;;;14.70;99.90;;;;;;5112221;28;20086;-58
2023/06/01 07:53:48;;;;;;;50.13;22.50;;;14.60;99.90;;;;;;5108281;28;20089;-58
2023/06/01 07:56:14;;;;;;;47.53;24.13;;;14.60;99.90;;;;;;5111594;28;20171;-58
2023/06/01 07:58:39;;;;;;;56.20;23.25;;;14.50;99.90;;;;;;5112639;28;20549;-55
2023/06/01 08:01:05;;;;;;;49.95;22.80;;;14.40;99.90;;;;;;5109790;28;20051;-58
2023/06/01 08:03:33;;;;;;;52.33;23.27;;;14.30;99.90;;;;;;5105776;28;20141;-60
2023/06/01 08:05:59;;;;;;;47.58;23.08;;;14.30;99.90;;;;;;5106466;28;20020;-59
2023/06/01 08:08:25;;;;;;;46.67;22.63;;;14.30;99.90;;;;;;5103794;28;20812;-59
2023/06/01 08:10:51;;;;;;;39.70;22.13;;;14.40;99.90;;;;;;5108750;28;20028;-58
2023/06/01 08:13:18;;;;;;;54.72;23.48;;;14.40;99.90;;;;;;5112307;28;20045;-60
2023/06/01 08:15:47;;;;;;;45.80;22.30;;;14.40;99.90;;;;;;5107765;28;20033;-58
2023/06/01 08:18:15;;;;;;;47.35;23.25;;;14.50;99.90;;;;;;5109100;28;20019;-59
2023/06/01 08:20:42;;;;;;;54.03;25.75;;;14.60;99.90;;;;;;5103221;28;20544;-59
2023/06/01 08:23:08;;;;;;;49.72;24.63;;;14.60;99.90;;;;;;5109321;28;20016;-57
2023/06/01 08:25:33;;;;;;;55.53;23.20;;;14.50;99.90;;;;;;5108042;28;20059;-60
2023/06/01 08:27:59;;;;;;;45.70;22.38;;;14.50;99.90;;;;;;5111768;28;20064;-57
2023/06/01 08:30:27;;;;;;;54.35;26.83;;;14.60;99.90;;;;;;5109186;28;20038;-58
2023/06/01 08:32:53;;;;;;;51.63;25.52;;;14.70;99.90;;;;;;5100692;28;20055;-56
2023/06/01 08:35:19;;;;;;;57.65;25.02;;;14.70;99.90;;;;;;5104190;28;20075;-55
2023/06/01 08:37:47;;;;;;;48.13;23.73;;;14.70;99.90;;;;;;5102152;28;20023;-60
2023/06/01 08:40:13;;;;;;;49.75;23.52;;;14.70;99.90;;;;;;5111682;28;20027;-55
2023/06/01 08:42:42;;;;;;;51.05;23.52;;;14.80;99.90;;;;;;5109564;28;20020;-59
2023/06/01 08:45:08;;;;;;;58.08;24.98;;;14.90;99.90;;;;;;5107109;28;20027;-58
2023/06/01 08:47:36;;;;;;;46.60;23.77;;;15.00;99.90;;;;;;5100106;28;20400;-60
2023/06/01 08:50:02;;;;;;;48.03;21.52;;;15.00;99.90;;;;;;5106359;28;20111;-59
2023/06/01 08:52:31;;;;;;;36.78;19.83;;;15.00;99.90;;;;;;5105683;28;20598;-59
2023/06/01 08:55:01;;;;;;;44.53;21.27;;;15.20;99.90;;;;;;5102326;28;20027;-59
2023/06/01 08:57:29;;;;;;;41.22;21.25;;;15.30;99.90;;;;;;5109929;28;20635;-59
2023/06/01 08:59:55;;;;;;;44.50;22.85;;;15.30;99.90;;;;;;5105105;28;20562;-58
2023/06/01 09:02:20;;;;;;;42.33;21.67;;;15.30;99.90;;;;;;5105676;28;20103;-59
2023/06/01 09:04:46;;;;;;;41.92;18.98;;;15.30;99.90;;;;;;5105740;28;20047;-59
2023/06/01 09:07:15;;;;;;;40.90;19.77;;;15.40;99.90;;;;;;5106450;28;20055;-61
2023/06/01 09:09:40;;;;;;;37.85;19.35;;;15.60;99.90;;;;;;5104372;28;20023;-60
2023/06/01 09:12:29;;;;;;;38.92;20.95;;;15.80;99.90;;;;;;5106193;28;20168;-60
2023/06/01 09:15:21;;;;;;;46.95;20.90;;;15.80;99.90;;;;;;5106266;28;20470;-58
2023/06/01 09:17:50;;;;;;;40.83;19.63;;;15.90;99.90;;;;;;5104994;28;20074;-61
2023/06/01 09:20:24;;;;;;;40.25;19.85;;;15.90;99.90;;;;;;5106150;28;20072;-60
2023/06/01 09:22:50;;;;;;;37.78;19.05;;;16.10;99.90;;;;;;5100965;28;20107;-59
2023/06/01 09:25:16;;;;;;;40.30;19.25;;;16.10;99.90;;;;;;5096929;28;20545;-59
2023/06/01 09:27:50;;;;;;;38.95;18.38;;;16.10;99.90;;;;;;5110269;28;20023;-59
2023/06/01 09:30:18;;;;;;;40.00;18.67;;;16.30;99.90;;;;;;5102485;28;20043;-60
2023/06/01 09:32:47;;;;;;;40.95;17.10;;;16.20;99.90;;;;;;5102564;28;20015;-61
2023/06/01 09:35:13;;;;;;;35.70;15.90;;;16.30;99.90;;;;;;5106634;28;20016;-57
2023/06/01 09:37:54;;;;;;;32.67;15.85;;;16.40;99.90;;;;;;5109443;28;20717;-59
2023/06/01 09:40:20;;;;;;;40.38;17.10;;;16.60;99.90;;;;;;5108602;28;20458;-61
2023/06/01 09:42:49;;;;;;;34.70;17.17;;;16.60;99.90;;;;;;5108039;28;20054;-59
2023/06/01 09:45:20;;;;;;;32.83;16.75;;;16.70;99.90;;;;;;5106560;28;20019;-59
2023/06/01 09:47:47;;;;;;;32.67;16.83;;;17.00;99.90;;;;;;5101565;28;20038;-60
2023/06/01 09:50:35;;;;;;;30.27;16.02;;;17.10;99.90;;;;;;5108957;28;20016;-56
2023/06/01 09:53:01;;;;;;;37.08;17.45;;;17.20;99.90;;;;;;5106055;28;20016;-60
2023/06/01 09:55:26;;;;;;;35.42;17.38;;;17.20;99.90;;;;;;5102753;28;20505;-56
2023/06/01 09:57:52;;;;;;;34.40;16.73;;;17.20;99.90;;;;;;5107764;28;20508;-60
2023/06/01 10:00:24;;;;;;;33.15;17.05;;;17.20;99.90;;;;;;5107389;28;20016;-61
2023/06/01 10:02:52;;;;;;;31.83;17.02;;;17.40;99.90;;;;;;5105294;28;20080;-60
2023/06/01 10:05:18;;;;;;;38.80;18.00;;;17.70;99.90;;;;;;5107734;28;20393;-60
2023/06/01 10:07:44;;;;;;;39.92;17.45;;;17.80;99.90;;;;;;5103587;27;20024;-60
2023/06/01 10:10:14;;;;;;;33.42;17.92;;;17.90;99.90;;;;;;5107789;28;20020;-59
2023/06/01 10:12:40;;;;;;;36.40;17.10;;;18.10;99.90;;;;;;5106235;28;20019;-59
2023/06/01 10:15:06;;;;;;;29.85;16.27;;;18.30;99.90;;;;;;5108230;28;20076;-60
2023/06/01 10:17:33;;;;;;;34.67;16.88;;;18.20;99.90;;;;;;5106646;28;20035;-59
2023/06/01 10:20:01;;;;;;;34.65;17.58;;;18.40;99.90;;;;;;5104516;28;20023;-60
2023/06/01 10:22:28;;;;;;;28.85;15.88;;;18.60;99.90;;;;;;5104772;28;20069;-59
2023/06/01 10:25:00;;;;;;;31.33;15.82;;;18.80;99.90;;;;;;5103214;28;20036;-60
2023/06/01 10:27:55;;;;;;;31.48;15.95;;;18.90;99.90;;;;;;5108265;28;20030;-61
2023/06/01 10:30:21;;;;;;;26.35;15.23;;;19.00;99.90;;;;;;5103203;28;20028;-60
2023/06/01 10:32:48;;;;;;;35.00;17.42;;;19.10;99.90;;;;;;5109384;28;20015;-60
2023/06/01 10:35:26;;;;;;;32.60;16.83;;;19.20;99.90;;;;;;5105830;28;20370;-59
2023/06/01 10:38:07;;;;;;;30.52;15.20;;;19.30;99.90;;;;;;5104028;28;20076;-59
2023/06/01 10:40:52;;;;;;;28.40;16.65;;;19.40;99.90;;;;;;5106695;27;20031;-60
2023/06/01 10:43:37;;;;;;;28.38;15.30;;;19.60;99.90;;;;;;5098842;28;20036;-61
2023/06/01 10:46:03;;;;;;;;;;;19.90;99.90;;;;;;5104401;28;20023;-61
2023/06/01 10:48:55;;;;;;;33.80;15.77;;;19.80;99.90;;;;;;5108496;28;20289;-61
2023/06/01 10:51:22;;;;;;;35.78;17.58;;;19.80;99.90;;;;;;5104993;28;20059;-60
2023/06/01 10:53:47;;;;;;;32.75;17.55;;;19.90;99.90;;;;;;5103597;28;20019;-61
2023/06/01 10:56:23;;;;;;;31.17;15.70;;;19.90;99.90;;;;;;5105928;28;20093;-59
2023/06/01 10:59:10;;;;;;;30.10;17.10;;;20.00;99.90;;;;;;5112651;27;20523;-61
2023/06/01 11:01:41;;;;;;;32.22;17.48;;;20.20;99.90;;;;;;5106109;28;20089;-58
2023/06/01 11:04:07;;;;;;;31.83;16.60;;;20.40;99.90;;;;;;5108495;28;20030;-60
2023/06/01 11:06:42;;;;;;;30.63;15.68;;;20.60;99.90;;;;;;5101871;28;20042;-57
2023/06/01 11:09:10;;;;;;;29.02;16.38;;;20.70;99.90;;;;;;5098775;28;20027;-58
2023/06/01 11:11:51;;;;;;;36.55;19.13;;;20.90;99.90;;;;;;5104440;28;20031;-59
2023/06/01 11:14:23;;;;;;;31.98;17.05;;;20.90;99.90;;;;;;5100726;28;20023;-59
2023/06/01 11:16:50;;;;;;;36.33;18.95;;;20.60;99.90;;;;;;5104797;28;20039;-57
2023/06/01 11:19:24;;;;;;;40.20;19.92;;;20.80;99.90;;;;;;5104437;28;20041;-60
2023/06/01 11:21:56;;;;;;;42.95;22.40;;;20.70;99.90;;;;;;5103702;28;20534;-60
2023/06/01 11:24:24;;;;;;;42.15;22.98;;;20.80;99.90;;;;;;5102112;28;20093;-56
2023/06/01 11:26:50;;;;;;;43.72;24.13;;;20.90;99.90;;;;;;5101146;28;20023;-59
2023/06/01 11:29:22;;;;;;;42.75;23.48;;;21.10;99.90;;;;;;5103348;28;20402;-60
2023/06/01 11:32:03;;;;;;;45.78;22.95;;;21.30;99.90;;;;;;5107965;28;20088;-60
2023/06/01 11:34:41;;;;;;;51.63;24.02;;;21.50;99.90;;;;;;5107113;28;20042;-60
2023/06/01 11:37:17;;;;;;;46.78;23.58;;;21.80;99.90;;;;;;5097568;28;20023;-58
2023/06/01 11:39:43;;;;;;;49.35;25.77;;;22.00;99.90;;;;;;5107563;28;20505;-59
2023/06/01 11:42:11;;;;;;;46.03;24.92;;;22.00;99.90;;;;;;5106519;28;20042;-59
2023/06/01 11:44:39;;;;;;;46.67;25.45;;;22.10;99.90;;;;;;5101870;28;20016;-60
2023/06/01 11:47:06;;;;;;;53.17;27.85;;;22.30;99.90;;;;;;5102510;28;20038;-57
2023/06/01 11:49:50;;;;;;;52.22;27.10;;;22.10;99.90;;;;;;5103994;28;20051;-58
2023/06/01 11:52:17;;;;;;;53.70;28.03;;;22.20;99.90;;;;;;5104008;28;20046;-60
2023/06/01 11:54:42;;;;;;;52.45;27.75;;;21.80;99.90;;;;;;5101772;28;20311;-57
2023/06/01 11:57:10;;;;;;;45.55;27.38;;;22.20;99.90;;;;;;5105191;28;20031;-55
2023/06/01 11:59:39;;;;;;;55.75;27.70;;;22.60;99.90;;;;;;5107668;28;20016;-55
2023/06/01 12:02:27;;;;;;;47.05;27.27;;;22.60;99.90;;;;;;5105478;28;20055;-58
2023/06/01 12:04:57;;;;;;;45.10;25.05;;;22.60;99.90;;;;;;5102460;28;20019;-58
2023/06/01 12:07:24;;;;;;;56.13;27.20;;;22.60;99.30;;;;;;5101438;28;20028;-56
2023/06/01 12:09:56;;;;;;;50.50;25.38;;;22.40;98.50;;;;;;5105442;28;20081;-58
2023/06/01 12:12:26;;;;;;;39.10;22.90;;;22.40;98.00;;;;;;5103153;28;20035;-59
2023/06/01 12:14:52;;;;;;;45.00;24.52;;;22.50;98.40;;;;;;5100474;28;20051;-59
2023/06/01 12:17:18;;;;;;;40.45;21.92;;;22.70;96.10;;;;;;5102164;28;20387;-58
2023/06/01 12:19:48;;;;;;;37.92;19.90;;;22.40;96.20;;;;;;5109849;28;20020;-58
2023/06/01 12:22:15;;;;;;;42.72;20.15;;;22.40;96.50;;;;;;5108726;27;20027;-60
2023/06/01 12:24:41;;;;;;;36.20;18.77;;;22.40;96.40;;;;;;5106861;28;20386;-59
2023/06/01 12:27:15;;;;;;;40.40;22.42;;;22.50;96.10;;;;;;5105488;28;20016;-60
2023/06/01 12:29:42;;;;;;;36.58;19.52;;;22.70;94.10;;;;;;5108188;28;20034;-60
2023/06/01 12:32:09;;;;;;;34.63;18.42;;;22.70;94.00;;;;;;5104868;28;20042;-60
2023/06/01 12:34:36;;;;;;;30.15;16.17;;;22.70;94.90;;;;;;5107002;28;20027;-59
2023/06/01 12:37:16;;;;;;;35.28;18.05;;;22.50;95.00;;;;;;5105999;28;20038;-59
2023/06/01 12:39:42;;;;;;;40.20;17.60;;;22.70;95.40;;;;;;5101465;28;20039;-60